Time;durP1;ratioP1;P1;durP2;ratioP2;P2;SDS_P1;SDS_P2;PMS_P1;PMS_P2;Temp;Humidity;BMP_temperature;BMP_pressure;BME280_temperature;BME280_humidity;BME280_pressure;Samples;Min_cycle;Max_cycle;Signal;HPM_P1;HPM_P2
2021/06/30 00:02:14;;;;;;;2.70;2.17;;;;;;;;;;5056423;28;20037;-49
2021/06/30 00:04:40;;;;;;;6.82;2.35;;;;;;;;;;5059861;28;20107;-49
2021/06/30 00:07:06;;;;;;;5.68;2.72;;;;;;;;;;5075444;28;20029;-49
2021/06/30 00:09:33;;;;;;;3.35;1.38;;;;;;;;;;5076118;28;20027;-49
2021/06/30 00:11:59;;;;;;;7.97;2.45;;;;;;;;;;5074217;28;20092;-49
2021/06/30 00:14:25;;;;;;;2.17;1.65;;;;;;;;;;5075751;28;20452;-49
2021/06/30 00:16:51;;;;;;;5.72;2.53;;;;;;;;;;5075676;28;20028;-49
2021/06/30 00:19:18;;;;;;;2.60;2.20;;;;;;;;;;5075928;28;20028;-49
2021/06/30 00:21:45;;;;;;;2.42;2.00;;;;;;;;;;5074942;28;20035;-49
2021/06/30 00:24:11;;;;;;;2.95;1.55;;;;;;;;;;5074196;28;20028;-49
2021/06/30 00:26:38;;;;;;;3.80;2.00;;;;;;;;;;5075823;28;20081;-49
2021/06/30 00:29:04;;;;;;;3.60;2.42;;;;;;;;;;5075910;28;20027;-49
2021/06/30 00:31:30;;;;;;;11.52;2.58;;;;;;;;;;5074710;28;20481;-50
2021/06/30 00:34:01;;;;;;;6.38;2.28;;;;;;;;;;5073832;28;20390;-49
2021/06/30 00:36:27;;;;;;;8.00;2.10;;;;;;;;;;5075726;28;20094;-50
2021/06/30 00:38:53;;;;;;;8.98;2.42;;;;;;;;;;5075467;28;20021;-49
2021/06/30 00:41:20;;;;;;;3.05;2.15;;;;;;;;;;5074823;28;20028;-50
2021/06/30 00:43:46;;;;;;;6.65;2.10;;;;;;;;;;5075514;28;20024;-50
2021/06/30 00:46:12;;;;;;;4.78;2.38;;;;;;;;;;5074173;28;20024;-49
2021/06/30 00:48:40;;;;;;;3.33;2.28;;;;;;;;;;5075029;28;20462;-49
2021/06/30 00:51:06;;;;;;;2.25;1.48;;;;;;;;;;5074542;28;20029;-49
2021/06/30 00:53:32;;;;;;;6.28;2.08;;;;;;;;;;5074473;28;20516;-49
2021/06/30 00:55:58;;;;;;;3.55;2.20;;;;;;;;;;5056039;28;20029;-49
2021/06/30 00:58:24;;;;;;;5.80;2.42;;;;;;;;;;5063591;28;20035;-49
2021/06/30 01:00:50;;;;;;;5.93;2.33;;;;;;;;;;5073989;28;20349;-49
2021/06/30 01:03:16;;;;;;;4.13;2.70;;;;;;;;;;5074842;28;20021;-49
2021/06/30 01:05:42;;;;;;;3.72;2.40;;;;;;;;;;5073699;28;20033;-49
2021/06/30 01:08:09;;;;;;;8.15;1.88;;;;;;;;;;5055214;28;20031;-49
2021/06/30 01:10:35;;;;;;;6.10;1.85;;;;;;;;;;5054725;28;20111;-49
2021/06/30 01:13:04;;;;;;;6.85;2.22;;;;;;;;;;5054869;28;20021;-49
2021/06/30 01:15:30;;;;;;;5.07;1.98;;;;;;;;;;5054645;28;20055;-49
2021/06/30 01:17:56;;;;;;;5.78;2.10;;;;;;;;;;5054754;28;20098;-49
2021/06/30 01:20:22;;;;;;;3.65;2.25;;;;;;;;;;5062373;28;20455;-49
2021/06/30 01:23:04;;;;;;;3.55;1.92;;;;;;;;;;5073952;28;20032;-49
2021/06/30 01:25:30;;;;;;;5.45;2.00;;;;;;;;;;5073037;28;20033;-49
2021/06/30 01:27:56;;;;;;;2.95;1.58;;;;;;;;;;5074332;28;20032;-49
2021/06/30 01:30:22;;;;;;;7.88;1.80;;;;;;;;;;5074809;28;20078;-49
2021/06/30 01:32:48;;;;;;;6.85;2.08;;;;;;;;;;5073900;28;20115;-49
2021/06/30 01:35:24;;;;;;;2.03;1.38;;;;;;;;;;5074369;28;20047;-49
2021/06/30 01:37:51;;;;;;;2.13;1.42;;;;;;;;;;5072251;28;20029;-49
2021/06/30 01:40:18;;;;;;;3.80;1.70;;;;;;;;;;5074316;28;20027;-49
2021/06/30 01:42:44;;;;;;;4.15;1.35;;;;;;;;;;5073659;28;20028;-49
2021/06/30 01:45:11;;;;;;;9.77;1.92;;;;;;;;;;5074319;28;20399;-49
2021/06/30 01:47:38;;;;;;;4.53;1.48;;;;;;;;;;5064954;28;20043;-49
2021/06/30 01:50:04;;;;;;;7.72;1.52;;;;;;;;;;5064001;28;20028;-49
2021/06/30 01:52:30;;;;;;;3.25;0.98;;;;;;;;;;5073374;28;20048;-50
2021/06/30 01:54:56;;;;;;;5.72;1.00;;;;;;;;;;5062817;28;20060;-49
2021/06/30 01:57:22;;;;;;;0.90;0.90;;;;;;;;;;5055220;28;20028;-49
2021/06/30 01:59:48;;;;;;;3.60;1.40;;;;;;;;;;5053989;28;20364;-49
2021/06/30 02:02:15;;;;;;;5.00;1.08;;;;;;;;;;5052740;28;20037;-49
2021/06/30 02:04:41;;;;;;;29.15;2.20;;;;;;;;;;5054415;28;20028;-49
2021/06/30 02:07:07;;;;;;;2.67;0.90;;;;;;;;;;5054041;28;20029;-49
2021/06/30 02:09:33;;;;;;;6.03;0.98;;;;;;;;;;5054628;28;20108;-49
2021/06/30 02:11:59;;;;;;;13.43;0.70;;;;;;;;;;5053230;28;20051;-49
2021/06/30 02:14:25;;;;;;;0.40;0.40;;;;;;;;;;5053942;28;20025;-49
2021/06/30 02:16:51;;;;;;;0.52;0.52;;;;;;;;;;5053450;28;20411;-49
2021/06/30 02:19:18;;;;;;;0.50;0.50;;;;;;;;;;5054722;28;20401;-49
2021/06/30 02:21:44;;;;;;;1.33;0.60;;;;;;;;;;5052919;28;20116;-49
2021/06/30 02:24:10;;;;;;;0.60;0.60;;;;;;;;;;5053624;28;20488;-49
2021/06/30 02:26:36;;;;;;;0.70;0.60;;;;;;;;;;5053380;28;20032;-49
2021/06/30 02:29:04;;;;;;;24.25;1.50;;;;;;;;;;5053195;28;20021;-49
2021/06/30 02:31:30;;;;;;;2.80;0.90;;;;;;;;;;5053970;28;20361;-49
2021/06/30 02:33:56;;;;;;;4.15;0.80;;;;;;;;;;5053298;28;20067;-49
2021/06/30 02:36:22;;;;;;;0.50;0.50;;;;;;;;;;5072918;28;20363;-49
2021/06/30 02:38:49;;;;;;;0.50;0.50;;;;;;;;;;5053532;28;20428;-49
2021/06/30 02:41:15;;;;;;;2.53;0.80;;;;;;;;;;5053397;28;20044;-49
2021/06/30 02:43:42;;;;;;;6.93;1.25;;;;;;;;;;5052503;28;20621;-49
2021/06/30 02:46:08;;;;;;;0.50;0.50;;;;;;;;;;5053500;28;20355;-49
2021/06/30 02:48:34;;;;;;;0.90;0.50;;;;;;;;;;5053110;28;20034;-49
2021/06/30 02:51:00;;;;;;;3.58;0.70;;;;;;;;;;5064780;28;20402;-49
2021/06/30 02:53:26;;;;;;;0.95;0.60;;;;;;;;;;5052870;28;20062;-49
2021/06/30 02:55:53;;;;;;;5.30;0.50;;;;;;;;;;5052792;28;20364;-49
2021/06/30 02:58:19;;;;;;;1.33;0.40;;;;;;;;;;5052849;28;20033;-49
2021/06/30 03:00:45;;;;;;;5.95;0.73;;;;;;;;;;5052315;28;20210;-49
2021/06/30 03:03:11;;;;;;;0.63;0.63;;;;;;;;;;5053978;28;20518;-49
2021/06/30 03:05:37;;;;;;;0.40;0.40;;;;;;;;;;5052838;28;20368;-49
2021/06/30 03:08:03;;;;;;;0.73;0.60;;;;;;;;;;5052800;28;20034;-50
2021/06/30 03:10:29;;;;;;;5.75;0.60;;;;;;;;;;5052817;28;20025;-49
2021/06/30 03:12:55;;;;;;;0.60;0.60;;;;;;;;;;5053357;28;20097;-49
2021/06/30 03:15:21;;;;;;;0.40;0.40;;;;;;;;;;5053036;28;20501;-49
2021/06/30 03:17:47;;;;;;;3.10;0.95;;;;;;;;;;5052832;28;20036;-49
2021/06/30 03:20:15;;;;;;;0.45;0.45;;;;;;;;;;5064935;28;20111;-49
2021/06/30 03:22:42;;;;;;;0.40;0.40;;;;;;;;;;5070224;28;20045;-49
2021/06/30 03:25:09;;;;;;;3.60;0.50;;;;;;;;;;5072115;28;20456;-49
2021/06/30 03:27:35;;;;;;;3.70;0.93;;;;;;;;;;5072875;28;20069;-49
2021/06/30 03:30:02;;;;;;;1.05;0.40;;;;;;;;;;5072845;28;20020;-49
2021/06/30 03:32:28;;;;;;;0.32;0.32;;;;;;;;;;5071999;28;20154;-49
2021/06/30 03:34:54;;;;;;;11.38;1.35;;;;;;;;;;5070980;28;20091;-49
2021/06/30 03:37:20;;;;;;;0.40;0.40;;;;;;;;;;5072226;28;20024;-49
2021/06/30 03:39:46;;;;;;;4.68;0.65;;;;;;;;;;5071883;28;20070;-49
2021/06/30 03:42:12;;;;;;;15.82;0.77;;;;;;;;;;5071660;28;20468;-49
2021/06/30 03:44:38;;;;;;;28.40;1.17;;;;;;;;;;5070819;28;20081;-49
2021/06/30 03:47:04;;;;;;;7.68;0.75;;;;;;;;;;5072708;28;20033;-49
2021/06/30 03:49:30;;;;;;;0.63;0.40;;;;;;;;;;5072209;28;20021;-49
2021/06/30 03:51:56;;;;;;;0.50;0.50;;;;;;;;;;5071960;28;20028;-49
2021/06/30 03:54:25;;;;;;;2.67;0.50;;;;;;;;;;5071505;28;20047;-49
2021/06/30 03:56:51;;;;;;;7.30;0.50;;;;;;;;;;5053146;28;20028;-49
2021/06/30 03:59:17;;;;;;;4.22;0.60;;;;;;;;;;5052552;28;20028;-49
2021/06/30 04:01:43;;;;;;;1.00;0.57;;;;;;;;;;5051760;28;20033;-49
2021/06/30 04:04:12;;;;;;;0.30;0.30;;;;;;;;;;5052289;28;20044;-49
2021/06/30 04:06:38;;;;;;;0.30;0.30;;;;;;;;;;5053346;28;20502;-49
2021/06/30 04:09:05;;;;;;;0.38;0.38;;;;;;;;;;5051913;28;20033;-49
2021/06/30 04:11:31;;;;;;;0.43;0.43;;;;;;;;;;5062662;28;20032;-49
2021/06/30 04:13:57;;;;;;;1.25;0.50;;;;;;;;;;5072084;28;20024;-49
2021/06/30 04:16:23;;;;;;;0.63;0.50;;;;;;;;;;5070768;28;20337;-49
2021/06/30 04:18:49;;;;;;;0.95;0.40;;;;;;;;;;5071662;28;20024;-50
2021/06/30 04:21:15;;;;;;;5.97;0.60;;;;;;;;;;5067801;28;20037;-48
2021/06/30 04:23:41;;;;;;;8.90;0.57;;;;;;;;;;5051531;28;20479;-49
2021/06/30 04:26:07;;;;;;;0.35;0.35;;;;;;;;;;5053184;28;20357;-49
2021/06/30 04:28:33;;;;;;;1.27;0.50;;;;;;;;;;5052057;28;20039;-49
2021/06/30 04:30:59;;;;;;;3.33;0.63;;;;;;;;;;5057193;28;20100;-48
2021/06/30 04:33:26;;;;;;;0.68;0.40;;;;;;;;;;5063752;28;20029;-49
2021/06/30 04:35:52;;;;;;;1.83;0.57;;;;;;;;;;5066072;28;20013;-49
2021/06/30 04:38:19;;;;;;;1.08;0.40;;;;;;;;;;5073605;28;20029;-49
2021/06/30 04:40:45;;;;;;;17.83;0.85;;;;;;;;;;5074835;28;20020;-49
2021/06/30 04:43:11;;;;;;;3.10;0.45;;;;;;;;;;5070040;28;20543;-49
2021/06/30 04:45:37;;;;;;;2.95;0.52;;;;;;;;;;5075654;28;20035;-49
2021/06/30 04:48:03;;;;;;;1.65;0.50;;;;;;;;;;5073856;28;20107;-49
2021/06/30 04:50:29;;;;;;;2.17;0.60;;;;;;;;;;5074785;28;20028;-49
2021/06/30 04:52:55;;;;;;;2.38;0.65;;;;;;;;;;5055691;28;20379;-49
2021/06/30 04:55:21;;;;;;;0.82;0.52;;;;;;;;;;5055198;28;20029;-49
2021/06/30 04:57:47;;;;;;;5.63;0.43;;;;;;;;;;5056252;28;20139;-49
2021/06/30 05:00:13;;;;;;;1.48;0.47;;;;;;;;;;5056260;28;20051;-49
2021/06/30 05:02:39;;;;;;;0.50;0.50;;;;;;;;;;5054554;28;20441;-49
2021/06/30 05:05:06;;;;;;;22.00;0.98;;;;;;;;;;5071460;28;20064;-49
2021/06/30 05:07:32;;;;;;;0.47;0.47;;;;;;;;;;5074889;28;20395;-49
2021/06/30 05:09:58;;;;;;;0.40;0.40;;;;;;;;;;5072970;28;20017;-50
2021/06/30 05:12:24;;;;;;;4.88;0.95;;;;;;;;;;5073645;28;20028;-50
2021/06/30 05:14:50;;;;;;;16.38;1.45;;;;;;;;;;5075176;28;20027;-50
2021/06/30 05:17:16;;;;;;;1.58;0.50;;;;;;;;;;5075013;28;20452;-49
2021/06/30 05:19:42;;;;;;;2.28;0.52;;;;;;;;;;5072335;28;20036;-49
2021/06/30 05:22:08;;;;;;;0.60;0.60;;;;;;;;;;5073431;28;20046;-49
2021/06/30 05:24:34;;;;;;;0.50;0.50;;;;;;;;;;5074186;28;20032;-49
2021/06/30 05:27:00;;;;;;;0.70;0.70;;;;;;;;;;5074762;28;20020;-49
2021/06/30 05:29:26;;;;;;;2.25;0.80;;;;;;;;;;5072893;28;20024;-49
2021/06/30 05:31:53;;;;;;;5.22;1.00;;;;;;;;;;5064897;28;20479;-49
2021/06/30 05:34:18;;;;;;;1.98;1.08;;;;;;;;;;5062409;28;20017;-49
2021/06/30 05:36:48;;;;;;;7.47;1.00;;;;;;;;;;5056095;28;20029;-49
2021/06/30 05:39:17;;;;;;;11.45;1.80;;;;;;;;;;5061445;28;20252;-49
2021/06/30 05:41:47;;;;;;;2.05;1.10;;;;;;;;;;5073444;28;20459;-49
2021/06/30 05:44:13;;;;;;;1.02;0.93;;;;;;;;;;5074000;28;20493;-49
2021/06/30 05:46:40;;;;;;;2.65;1.10;;;;;;;;;;5074277;28;20020;-49
2021/06/30 05:49:06;;;;;;;0.80;0.75;;;;;;;;;;5073977;28;20033;-48
2021/06/30 05:51:32;;;;;;;1.13;1.08;;;;;;;;;;5073516;28;20031;-49
2021/06/30 05:53:58;;;;;;;0.60;0.60;;;;;;;;;;5074465;28;20120;-49
2021/06/30 05:56:24;;;;;;;0.77;0.68;;;;;;;;;;5073775;28;20048;-49
2021/06/30 05:58:50;;;;;;;5.32;0.93;;;;;;;;;;5074118;28;20447;-49
2021/06/30 06:01:16;;;;;;;1.00;0.80;;;;;;;;;;5073129;28;20035;-49
2021/06/30 06:03:42;;;;;;;1.02;0.98;;;;;;;;;;5073925;28;20036;-49
2021/06/30 06:06:08;;;;;;;14.50;1.55;;;;;;;;;;5073980;28;20112;-49
2021/06/30 06:08:34;;;;;;;0.80;0.80;;;;;;;;;;5074345;28;20031;-49
2021/06/30 06:11:01;;;;;;;0.77;0.70;;;;;;;;;;5072896;28;20035;-49
2021/06/30 06:13:27;;;;;;;7.90;1.00;;;;;;;;;;5073960;28;20028;-49
2021/06/30 06:15:53;;;;;;;3.90;0.90;;;;;;;;;;5073449;28;20352;-49
2021/06/30 06:18:19;;;;;;;1.30;1.00;;;;;;;;;;5073613;28;20058;-49
2021/06/30 06:20:45;;;;;;;0.70;0.70;;;;;;;;;;5072623;28;20054;-49
2021/06/30 06:23:12;;;;;;;4.05;0.85;;;;;;;;;;5073757;28;20024;-49
2021/06/30 06:25:38;;;;;;;1.65;0.50;;;;;;;;;;5073603;28;20074;-49
2021/06/30 06:28:05;;;;;;;12.68;1.05;;;;;;;;;;5073438;28;20024;-49
2021/06/30 06:30:31;;;;;;;4.10;0.75;;;;;;;;;;5072921;28;20068;-49
2021/06/30 06:32:57;;;;;;;15.15;0.90;;;;;;;;;;5072997;28;20032;-49
2021/06/30 06:35:23;;;;;;;2.15;0.85;;;;;;;;;;5073318;28;20024;-49
2021/06/30 06:37:50;;;;;;;0.68;0.65;;;;;;;;;;5073692;28;20025;-49
2021/06/30 06:40:16;;;;;;;0.50;0.50;;;;;;;;;;5073423;28;20020;-49
2021/06/30 06:42:42;;;;;;;0.55;0.55;;;;;;;;;;5072451;28;20058;-49
2021/06/30 06:45:09;;;;;;;0.50;0.50;;;;;;;;;;5072969;28;20025;-49
2021/06/30 06:47:35;;;;;;;0.50;0.50;;;;;;;;;;5073314;28;20132;-49
2021/06/30 06:50:01;;;;;;;0.40;0.40;;;;;;;;;;5073276;28;20452;-49
2021/06/30 06:52:27;;;;;;;1.42;0.90;;;;;;;;;;5072280;28;20054;-49
2021/06/30 06:54:53;;;;;;;0.77;0.60;;;;;;;;;;5072861;28;20021;-49
2021/06/30 06:57:19;;;;;;;4.72;1.02;;;;;;;;;;5072176;28;20035;-49
2021/06/30 06:59:45;;;;;;;1.17;0.50;;;;;;;;;;5072843;28;20043;-49
2021/06/30 07:02:11;;;;;;;0.52;0.52;;;;;;;;;;5072435;28;20036;-49
2021/06/30 07:04:37;;;;;;;3.90;0.60;;;;;;;;;;5073027;28;20444;-49
2021/06/30 07:07:03;;;;;;;0.85;0.63;;;;;;;;;;5072832;28;20063;-49
2021/06/30 07:09:29;;;;;;;0.40;0.40;;;;;;;;;;5073139;28;20062;-49
2021/06/30 07:11:55;;;;;;;1.38;0.60;;;;;;;;;;5072140;28;20394;-49
2021/06/30 07:14:21;;;;;;;1.08;0.70;;;;;;;;;;5072536;28;20104;-49
2021/06/30 07:16:47;;;;;;;3.30;0.70;;;;;;;;;;5070650;28;20021;-49
2021/06/30 07:19:13;;;;;;;6.72;0.80;;;;;;;;;;5072943;28;20025;-49
2021/06/30 07:21:39;;;;;;;1.48;0.70;;;;;;;;;;5071957;28;20037;-49
2021/06/30 07:24:07;;;;;;;2.40;1.00;;;;;;;;;;5073157;28;20025;-49
2021/06/30 07:26:33;;;;;;;1.63;0.45;;;;;;;;;;5072082;28;20086;-50
2021/06/30 07:28:59;;;;;;;0.40;0.40;;;;;;;;;;5072335;28;20043;-49
2021/06/30 07:31:25;;;;;;;0.90;0.50;;;;;;;;;;5071933;28;20436;-49
2021/06/30 07:33:51;;;;;;;11.93;0.80;;;;;;;;;;5073036;28;20017;-49
2021/06/30 07:36:17;;;;;;;24.75;0.98;;;;;;;;;;5072586;28;20028;-49
2021/06/30 07:38:44;;;;;;;29.60;1.15;;;;;;;;;;5072741;28;20052;-49
2021/06/30 07:41:10;;;;;;;2.28;0.70;;;;;;;;;;5071301;28;20378;-49
2021/06/30 07:43:36;;;;;;;31.20;1.23;;;;;;;;;;5072629;28;20375;-49
2021/06/30 07:46:03;;;;;;;0.65;0.65;;;;;;;;;;5072313;28;20064;-49
2021/06/30 07:48:29;;;;;;;0.50;0.43;;;;;;;;;;5072871;28;20024;-49
2021/06/30 07:50:55;;;;;;;4.80;0.70;;;;;;;;;;5071553;28;20017;-49
2021/06/30 07:53:20;;;;;;;0.60;0.60;;;;;;;;;;5072413;28;20448;-49
2021/06/30 07:55:47;;;;;;;0.50;0.50;;;;;;;;;;5072782;28;20070;-49
2021/06/30 07:58:13;;;;;;;0.45;0.45;;;;;;;;;;5072043;28;20054;-49
2021/06/30 08:00:39;;;;;;;6.88;0.73;;;;;;;;;;5071249;28;20111;-49
2021/06/30 08:03:05;;;;;;;14.50;0.75;;;;;;;;;;5072580;28;20119;-49
2021/06/30 08:05:33;;;;;;;1.15;0.70;;;;;;;;;;5072297;28;20048;-49
2021/06/30 08:07:59;;;;;;;1.08;0.55;;;;;;;;;;5075016;28;20440;-49
2021/06/30 08:10:25;;;;;;;7.70;0.73;;;;;;;;;;5076242;28;20024;-49
2021/06/30 08:12:51;;;;;;;3.15;0.68;;;;;;;;;;5075805;28;20047;-49
2021/06/30 08:15:17;;;;;;;1.02;0.60;;;;;;;;;;5075902;28;20028;-49
2021/06/30 08:17:46;;;;;;;1.13;0.50;;;;;;;;;;5076069;28;20360;-49
2021/06/30 08:20:13;;;;;;;6.13;1.05;;;;;;;;;;5076144;28;20078;-49
2021/06/30 08:22:38;;;;;;;0.40;0.38;;;;;;;;;;5074970;28;20493;-49
2021/06/30 08:25:05;;;;;;;0.43;0.43;;;;;;;;;;5075958;28;20029;-49
2021/06/30 08:27:31;;;;;;;5.88;0.70;;;;;;;;;;5075690;28;20367;-49
2021/06/30 08:30:00;;;;;;;12.15;1.08;;;;;;;;;;5075466;28;20550;-49
2021/06/30 08:32:27;;;;;;;6.00;0.68;;;;;;;;;;5075212;28;20102;-49
2021/06/30 08:34:53;;;;;;;4.05;0.60;;;;;;;;;;5075905;28;20032;-50
2021/06/30 08:37:20;;;;;;;4.93;0.60;;;;;;;;;;5075629;28;20024;-49
2021/06/30 08:39:47;;;;;;;1.13;0.55;;;;;;;;;;5075600;28;20493;-49
2021/06/30 08:42:15;;;;;;;0.50;0.50;;;;;;;;;;5074371;28;20044;-50
2021/06/30 08:44:41;;;;;;;5.65;0.73;;;;;;;;;;5075348;28;20024;-49
2021/06/30 08:47:08;;;;;;;1.58;0.60;;;;;;;;;;5075641;28;20031;-49
2021/06/30 08:49:35;;;;;;;5.22;0.88;;;;;;;;;;5075294;28;20025;-49
2021/06/30 08:52:01;;;;;;;1.08;0.50;;;;;;;;;;5074610;28;20031;-49
2021/06/30 08:54:27;;;;;;;1.77;0.60;;;;;;;;;;5075286;28;20388;-49
2021/06/30 08:56:55;;;;;;;19.95;1.10;;;;;;;;;;5075214;28;20029;-49
2021/06/30 08:59:21;;;;;;;0.50;0.50;;;;;;;;;;5075379;28;20024;-49
2021/06/30 09:01:47;;;;;;;4.63;0.77;;;;;;;;;;5074174;28;20115;-49
2021/06/30 09:04:14;;;;;;;0.40;0.40;;;;;;;;;;5075336;28;20063;-49
2021/06/30 09:06:40;;;;;;;6.43;0.73;;;;;;;;;;5075433;28;20029;-49
2021/06/30 09:09:13;;;;;;;13.13;1.10;;;;;;;;;;5075291;28;20082;-49
2021/06/30 09:11:40;;;;;;;3.33;0.55;;;;;;;;;;5074559;28;20332;-49
2021/06/30 09:14:09;;;;;;;0.60;0.60;;;;;;;;;;5074961;28;20039;-49
2021/06/30 09:16:56;;;;;;;4.20;0.57;;;;;;;;;;5075178;28;20029;-49
2021/06/30 09:19:42;;;;;;;7.63;0.70;;;;;;;;;;5074290;28;20029;-49
2021/06/30 09:22:08;;;;;;;1.95;0.68;;;;;;;;;;5073943;28;20123;-49
2021/06/30 09:24:38;;;;;;;15.27;0.93;;;;;;;;;;5074822;28;20071;-49
2021/06/30 09:27:05;;;;;;;225.85;7.32;;;;;;;;;;5074982;28;20020;-49
2021/06/30 09:29:31;;;;;;;13.05;1.05;;;;;;;;;;5074879;28;20054;-49
2021/06/30 09:31:57;;;;;;;2.15;0.60;;;;;;;;;;5074059;28;20028;-49
2021/06/30 09:34:24;;;;;;;8.60;0.65;;;;;;;;;;5074759;28;20066;-49
2021/06/30 09:36:54;;;;;;;34.72;1.35;;;;;;;;;;5074967;28;20025;-49
2021/06/30 09:39:21;;;;;;;6.30;0.50;;;;;;;;;;5074513;28;20029;-49
2021/06/30 09:41:47;;;;;;;0.40;0.40;;;;;;;;;;5073692;28;20395;-49
2021/06/30 09:44:13;;;;;;;2.45;0.52;;;;;;;;;;5074342;28;20016;-49
2021/06/30 09:46:40;;;;;;;9.07;1.30;;;;;;;;;;5074303;28;20066;-49
2021/06/30 09:49:07;;;;;;;0.73;0.47;;;;;;;;;;5074135;28;20035;-49
2021/06/30 09:51:33;;;;;;;5.95;0.52;;;;;;;;;;5073559;28;20028;-49
2021/06/30 09:54:10;;;;;;;101.65;3.72;;;;;;;;;;5074098;28;20120;-49
2021/06/30 09:56:40;;;;;;;8.18;0.63;;;;;;;;;;5074171;28;20032;-49
2021/06/30 09:59:09;;;;;;;11.05;0.73;;;;;;;;;;5073967;28;20044;-49
2021/06/30 10:01:38;;;;;;;54.63;2.25;;;;;;;;;;5073592;28;20431;-49
2021/06/30 10:04:04;;;;;;;30.48;1.17;;;;;;;;;;5073831;28;20447;-49
2021/06/30 10:06:32;;;;;;;9.98;1.00;;;;;;;;;;5074316;28;20028;-49
2021/06/30 10:08:59;;;;;;;5.50;0.75;;;;;;;;;;5073894;28;20044;-49
2021/06/30 10:11:25;;;;;;;0.50;0.50;;;;;;;;;;5072917;28;20016;-49
2021/06/30 10:13:51;;;;;;;15.77;2.10;;;;;;;;;;5073705;28;20111;-50
2021/06/30 10:16:19;;;;;;;42.20;2.28;;;;;;;;;;5073633;28;20056;-49
2021/06/30 10:18:48;;;;;;;14.50;1.13;;;;;;;;;;5073872;28;20045;-49
2021/06/30 10:21:15;;;;;;;27.33;1.58;;;;;;;;;;5073243;28;20044;-49
2021/06/30 10:23:41;;;;;;;1.60;0.55;;;;;;;;;;5073715;28;20024;-49
2021/06/30 10:26:07;;;;;;;0.57;0.52;;;;;;;;;;5073788;28;20028;-49
2021/06/30 10:28:34;;;;;;;4.25;0.60;;;;;;;;;;5073042;28;20063;-49
2021/06/30 10:31:00;;;;;;;0.40;0.40;;;;;;;;;;5070250;28;20033;-49
2021/06/30 10:33:31;;;;;;;8.68;1.42;;;;;;;;;;5073389;28;20024;-49
2021/06/30 10:35:57;;;;;;;16.83;1.02;;;;;;;;;;5073610;28;20032;-49
2021/06/30 10:38:23;;;;;;;5.68;0.63;;;;;;;;;;5073523;28;20070;-49
2021/06/30 10:40:49;;;;;;;12.13;0.60;;;;;;;;;;5072664;28;20025;-49
2021/06/30 10:43:15;;;;;;;9.52;0.75;;;;;;;;;;5073501;28;20060;-49
2021/06/30 10:45:42;;;;;;;1.98;0.50;;;;;;;;;;5073365;28;20024;-49
2021/06/30 10:48:11;;;;;;;0.50;0.50;;;;;;;;;;5073040;28;20032;-49
2021/06/30 10:50:41;;;;;;;0.52;0.52;;;;;;;;;;5072228;28;20025;-49
2021/06/30 10:53:11;;;;;;;0.50;0.50;;;;;;;;;;5073092;28;20456;-49
2021/06/30 10:55:41;;;;;;;2.30;0.68;;;;;;;;;;5073099;28;20032;-49
2021/06/30 10:58:16;;;;;;;48.23;2.13;;;;;;;;;;5073250;28;20029;-49
2021/06/30 11:00:52;;;;;;;28.98;1.20;;;;;;;;;;5072178;28;20123;-49
2021/06/30 11:03:24;;;;;;;44.83;1.17;;;;;;;;;;5073153;28;20048;-49
2021/06/30 11:05:54;;;;;;;0.30;0.30;;;;;;;;;;5073137;28;20032;-49
2021/06/30 11:08:52;;;;;;;0.80;0.47;;;;;;;;;;5073121;28;20079;-49
2021/06/30 11:11:18;;;;;;;0.73;0.60;;;;;;;;;;5048946;28;20115;-50
2021/06/30 11:14:03;;;;;;;0.40;0.40;;;;;;;;;;5072936;28;20436;-49
2021/06/30 11:16:43;;;;;;;0.95;0.45;;;;;;;;;;5072786;28;20451;-49
2021/06/30 11:19:29;;;;;;;10.30;0.97;;;;;;;;;;5072601;28;20044;-50
2021/06/30 11:21:59;;;;;;;3.35;0.70;;;;;;;;;;5064435;28;20055;-50
2021/06/30 11:24:25;;;;;;;;;;;;;;;;;;5073056;28;20028;-50
2021/06/30 11:26:51;;;;;;;7.10;0.80;;;;;;;;;;5072670;28;20255;-49
2021/06/30 11:29:36;;;;;;;22.77;1.42;;;;;;;;;;5072427;28;20482;-49
2021/06/30 11:32:02;;;;;;;0.70;0.70;;;;;;;;;;5071601;28;20452;-49
2021/06/30 11:34:28;;;;;;;11.80;0.98;;;;;;;;;;5072483;28;20066;-50
2021/06/30 11:36:54;;;;;;;4.53;0.77;;;;;;;;;;5072420;28;20024;-49
2021/06/30 11:39:21;;;;;;;2.03;0.52;;;;;;;;;;5072754;28;20031;-50
2021/06/30 11:41:50;;;;;;;9.77;1.52;;;;;;;;;;5072725;28;20364;-49
2021/06/30 11:44:18;;;;;;;7.65;1.20;;;;;;;;;;5076595;28;20519;-49
2021/06/30 11:46:45;;;;;;;4.75;0.73;;;;;;;;;;5076528;28;20029;-50
2021/06/30 11:49:12;;;;;;;9.20;0.80;;;;;;;;;;5076543;28;20028;-49
2021/06/30 11:51:38;;;;;;;0.47;0.47;;;;;;;;;;5075912;28;20406;-49
2021/06/30 11:54:12;;;;;;;0.50;0.50;;;;;;;;;;5076798;28;20024;-49
2021/06/30 11:56:39;;;;;;;1.05;0.65;;;;;;;;;;5076492;28;20024;-50
2021/06/30 11:59:15;;;;;;;6.35;0.70;;;;;;;;;;5076429;28;20120;-49
2021/06/30 12:01:41;;;;;;;0.40;0.40;;;;;;;;;;5075604;28;20451;-50
2021/06/30 12:04:10;;;;;;;9.52;0.73;;;;;;;;;;5076477;28;20120;-49
2021/06/30 12:06:36;;;;;;;0.63;0.63;;;;;;;;;;5076527;28;20390;-49
2021/06/30 12:09:08;;;;;;;1.95;0.60;;;;;;;;;;5076129;28;20028;-49
2021/06/30 12:11:35;;;;;;;9.82;0.70;;;;;;;;;;5075818;28;20028;-49
2021/06/30 12:14:04;;;;;;;3.75;0.98;;;;;;;;;;5076009;28;20047;-50
2021/06/30 12:16:42;;;;;;;4.68;0.70;;;;;;;;;;5076302;28;20339;-50
2021/06/30 12:19:12;;;;;;;11.93;0.90;;;;;;;;;;5075917;28;20044;-50
2021/06/30 12:21:38;;;;;;;0.93;0.73;;;;;;;;;;5075071;28;20040;-50
2021/06/30 12:24:12;;;;;;;1.83;0.77;;;;;;;;;;5076037;28;20156;-49
2021/06/30 12:26:54;;;;;;;0.40;0.40;;;;;;;;;;5076161;28;20032;-50
2021/06/30 12:29:20;;;;;;;0.60;0.60;;;;;;;;;;5075951;28;20032;-50
2021/06/30 12:31:46;;;;;;;0.40;0.40;;;;;;;;;;5075431;28;20035;-49
2021/06/30 12:34:13;;;;;;;1.52;0.47;;;;;;;;;;5075585;28;20028;-49
2021/06/30 12:36:39;;;;;;;0.70;0.60;;;;;;;;;;5075548;28;20033;-49
2021/06/30 12:39:21;;;;;;;2.05;0.60;;;;;;;;;;5076015;28;20036;-49
2021/06/30 12:41:58;;;;;;;0.63;0.63;;;;;;;;;;5075425;28;20032;-49
2021/06/30 12:44:25;;;;;;;0.50;0.50;;;;;;;;;;5075217;28;20029;-50
2021/06/30 12:47:06;;;;;;;2.03;0.38;;;;;;;;;;5075637;28;20020;-49
2021/06/30 12:49:32;;;;;;;0.50;0.50;;;;;;;;;;5075176;28;20462;-50
2021/06/30 12:51:58;;;;;;;2.08;0.50;;;;;;;;;;5074560;28;20047;-50
2021/06/30 12:54:24;;;;;;;5.05;0.95;;;;;;;;;;5074540;28;20020;-49
2021/06/30 12:57:01;;;;;;;0.40;0.40;;;;;;;;;;5075694;28;20462;-50
2021/06/30 12:59:27;;;;;;;1.17;0.73;;;;;;;;;;5074841;28;20032;-49
2021/06/30 13:01:53;;;;;;;0.50;0.50;;;;;;;;;;5074363;28;20127;-50
2021/06/30 13:04:28;;;;;;;1.35;0.40;;;;;;;;;;5075402;28;20360;-49
2021/06/30 13:06:54;;;;;;;0.40;0.40;;;;;;;;;;5075424;28;20023;-49
2021/06/30 13:09:27;;;;;;;1.60;0.47;;;;;;;;;;5074969;28;20029;-50
2021/06/30 13:11:58;;;;;;;1.13;0.60;;;;;;;;;;5074670;28;20027;-49
2021/06/30 13:14:31;;;;;;;0.40;0.40;;;;;;;;;;5074971;28;20040;-49
2021/06/30 13:16:58;;;;;;;0.30;0.30;;;;;;;;;;5075114;28;20128;-49
2021/06/30 13:19:28;;;;;;;0.45;0.45;;;;;;;;;;5075155;28;20032;-49
2021/06/30 13:21:54;;;;;;;0.85;0.43;;;;;;;;;;5073809;28;20115;-49
2021/06/30 13:24:26;;;;;;;5.55;0.70;;;;;;;;;;5074868;28;20021;-49
2021/06/30 13:30:06;;;;;;;0.50;0.50;;;;;;;;;;5075143;28;20074;-49
2021/06/30 13:35:17;;;;;;;5.20;0.90;;;;;;;;;;5074446;28;20498;-50
2021/06/30 13:37:43;;;;;;;0.60;0.60;;;;;;;;;;5074701;28;20029;-49
2021/06/30 13:40:09;;;;;;;1.60;0.68;;;;;;;;;;5074758;28;20100;-49
2021/06/30 13:42:35;;;;;;;4.32;0.80;;;;;;;;;;5073801;28;20436;-49
2021/06/30 13:45:01;;;;;;;0.45;0.40;;;;;;;;;;5074436;28;20023;-50
2021/06/30 13:47:27;;;;;;;0.98;0.65;;;;;;;;;;5074402;28;20024;-49
2021/06/30 13:49:53;;;;;;;5.63;0.60;;;;;;;;;;5074165;28;20033;-49
2021/06/30 13:52:19;;;;;;;0.82;0.45;;;;;;;;;;5073370;28;20111;-50
2021/06/30 13:54:45;;;;;;;0.40;0.40;;;;;;;;;;5074902;28;20050;-50
2021/06/30 13:57:11;;;;;;;0.52;0.52;;;;;;;;;;5074379;28;20078;-49
2021/06/30 13:59:37;;;;;;;1.33;0.60;;;;;;;;;;5074418;28;20025;-49
2021/06/30 14:02:03;;;;;;;1.05;0.50;;;;;;;;;;5073024;28;20029;-50
2021/06/30 14:04:29;;;;;;;0.60;0.45;;;;;;;;;;5073604;28;20028;-50
2021/06/30 14:06:55;;;;;;;0.50;0.50;;;;;;;;;;5074091;28;20451;-49
2021/06/30 14:09:22;;;;;;;0.73;0.50;;;;;;;;;;5074069;28;20118;-49
2021/06/30 14:11:48;;;;;;;15.57;0.68;;;;;;;;;;5073000;28;20522;-49
2021/06/30 14:14:14;;;;;;;0.40;0.40;;;;;;;;;;5074113;28;20111;-49
2021/06/30 14:16:40;;;;;;;0.60;0.60;;;;;;;;;;5073790;28;20025;-49
2021/06/30 14:19:06;;;;;;;0.50;0.50;;;;;;;;;;5073387;28;20151;-49
2021/06/30 14:21:32;;;;;;;0.47;0.47;;;;;;;;;;5073277;28;20029;-49
2021/06/30 14:23:59;;;;;;;0.50;0.50;;;;;;;;;;5073590;28;20394;-49
2021/06/30 14:26:24;;;;;;;0.40;0.40;;;;;;;;;;5073661;28;20364;-49
2021/06/30 14:28:51;;;;;;;0.55;0.55;;;;;;;;;;5073716;28;20025;-49
2021/06/30 14:31:17;;;;;;;0.90;0.55;;;;;;;;;;5072360;28;20043;-49
2021/06/30 14:33:43;;;;;;;0.60;0.60;;;;;;;;;;5073589;28;20035;-49
2021/06/30 14:36:09;;;;;;;0.47;0.47;;;;;;;;;;5073512;28;20043;-49
2021/06/30 14:38:35;;;;;;;0.32;0.32;;;;;;;;;;5073490;28;20024;-49
2021/06/30 14:41:01;;;;;;;0.68;0.68;;;;;;;;;;5072777;28;20048;-49
2021/06/30 14:43:27;;;;;;;0.50;0.50;;;;;;;;;;5073801;28;20420;-49
2021/06/30 14:45:59;;;;;;;0.47;0.47;;;;;;;;;;5072570;28;20027;-49
2021/06/30 14:48:25;;;;;;;0.40;0.40;;;;;;;;;;5073612;28;20051;-49